Time;durP1;ratioP1;P1;durP2;ratioP2;P2;SDS_P1;SDS_P2;PMS_P1;PMS_P2;Temp;Humidity;BMP_temperature;BMP_pressure;BME280_temperature;BME280_humidity;BME280_pressure;Samples;Min_cycle;Max_cycle;Signal;HPM_P1;HPM_P2
2023/11/09 00:01:03;;;;;;;;;0.00;0.00;;;;;;;;6218943;22;45176;-95
2023/11/09 00:03:29;;;;;;;;;0.00;0.00;;;;;;;;6245116;22;46349;-95
2023/11/09 00:05:54;;;;;;;;;3.00;3.00;;;;;;;;6218745;22;45201;-95
2023/11/09 00:08:20;;;;;;;;;0.00;0.00;;;;;;;;6245913;22;45156;-96
2023/11/09 00:10:45;;;;;;;;;0.00;0.00;;;;;;;;6221507;22;45184;-96
2023/11/09 00:13:10;;;;;;;;;0.00;0.00;;;;;;;;6246042;22;46027;-94
2023/11/09 00:15:37;;;;;;;;;0.00;0.00;;;;;;;;6245309;22;45319;-96
2023/11/09 00:18:03;;;;;;;;;0.00;0.00;;;;;;;;6245769;22;45263;-95
2023/11/09 00:20:28;;;;;;;;;0.00;0.00;;;;;;;;6219275;22;45467;-95
2023/11/09 00:22:53;;;;;;;;;0.00;0.00;;;;;;;;6218373;22;47093;-96
2023/11/09 00:25:19;;;;;;;;;0.00;0.00;;;;;;;;6244524;22;45251;-95
2023/11/09 00:27:44;;;;;;;;;0.00;0.00;;;;;;;;6245240;22;45222;-95
2023/11/09 00:30:09;;;;;;;;;0.00;0.00;;;;;;;;6245168;22;45220;-94
2023/11/09 00:32:37;;;;;;;;;0.00;0.00;;;;;;;;6218286;22;47405;-95
2023/11/09 00:35:04;;;;;;;;;0.00;0.00;;;;;;;;6245891;22;45306;-95
2023/11/09 00:37:31;;;;;;;;;0.00;0.00;;;;;;;;6245303;22;45163;-94
2023/11/09 00:39:56;;;;;;;;;0.00;0.00;;;;;;;;6244770;22;45457;-94
2023/11/09 00:42:24;;;;;;;;;0.00;0.00;;;;;;;;6218366;22;48151;-94
2023/11/09 00:44:50;;;;;;;;;0.00;0.00;;;;;;;;6218297;22;45319;-94
2023/11/09 00:47:15;;;;;;;;;0.00;0.00;;;;;;;;6247792;22;45339;-93
2023/11/09 00:49:41;;;;;;;;;0.00;0.00;;;;;;;;6222566;22;45263;-93
2023/11/09 00:52:06;;;;;;;;;0.00;0.00;;;;;;;;6245508;22;45332;-94
2023/11/09 00:54:31;;;;;;;;;0.00;0.00;;;;;;;;6218148;22;45529;-94
2023/11/09 00:56:59;;;;;;;;;0.00;0.00;;;;;;;;6244438;22;45242;-94
2023/11/09 00:59:27;;;;;;;;;0.00;0.00;;;;;;;;6244893;22;45382;-95
2023/11/09 01:01:52;;;;;;;;;0.00;0.00;;;;;;;;6245497;22;46581;-94
2023/11/09 01:04:17;;;;;;;;;0.00;0.00;;;;;;;;6244754;22;45323;-94
2023/11/09 01:06:43;;;;;;;;;0.00;0.00;;;;;;;;6217833;22;45258;-93
2023/11/09 01:09:08;;;;;;;;;0.00;0.00;;;;;;;;6218016;22;45292;-93
2023/11/09 01:11:33;;;;;;;;;0.00;0.00;;;;;;;;6245124;22;45498;-94
2023/11/09 01:13:59;;;;;;;;;0.00;0.00;;;;;;;;6218679;22;45394;-93
2023/11/09 01:16:24;;;;;;;;;0.00;0.00;;;;;;;;6245399;22;45359;-94
2023/11/09 01:18:52;;;;;;;;;0.00;0.00;;;;;;;;6245357;22;45161;-94
2023/11/09 01:21:17;;;;;;;;;0.00;0.00;;;;;;;;6217614;22;47008;-94
2023/11/09 01:23:43;;;;;;;;;0.00;0.00;;;;;;;;6217765;22;45961;-94
2023/11/09 01:26:09;;;;;;;;;0.00;0.00;;;;;;;;6245236;22;45144;-94
2023/11/09 01:28:34;;;;;;;;;0.00;0.00;;;;;;;;6245163;22;45167;-94
2023/11/09 01:30:59;;;;;;;;;0.00;0.00;;;;;;;;6218135;22;46975;-95
2023/11/09 01:33:25;;;;;;;;;0.00;0.00;;;;;;;;6245344;22;45157;-94
2023/11/09 01:35:50;;;;;;;;;0.00;0.00;;;;;;;;6245124;22;45113;-94
2023/11/09 01:38:15;;;;;;;;;0.00;0.00;;;;;;;;6218023;22;45150;-94
2023/11/09 01:40:40;;;;;;;;;0.00;0.00;;;;;;;;6218326;22;48190;-94
2023/11/09 01:43:12;;;;;;;;;0.00;0.00;;;;;;;;6217648;22;45268;-94
2023/11/09 01:45:38;;;;;;;;;0.00;0.00;;;;;;;;6244890;22;45271;-94
2023/11/09 01:48:04;;;;;;;;;0.00;0.00;;;;;;;;6244474;22;45315;-94
2023/11/09 01:50:29;;;;;;;;;0.00;0.00;;;;;;;;6244207;22;45159;-93
2023/11/09 01:52:57;;;;;;;;;0.00;0.00;;;;;;;;6217583;22;45743;-94
2023/11/09 01:55:22;;;;;;;;;0.00;0.00;;;;;;;;6244706;22;45249;-93
2023/11/09 01:57:47;;;;;;;;;0.00;0.00;;;;;;;;6212386;22;45215;-94
2023/11/09 02:00:14;;;;;;;;;0.00;0.00;;;;;;;;6213741;22;45319;-94
2023/11/09 02:02:39;;;;;;;;;0.00;0.00;;;;;;;;6214030;22;45359;-94
2023/11/09 02:05:08;;;;;;;;;0.00;0.00;;;;;;;;6213737;22;45190;-95
2023/11/09 02:07:36;;;;;;;;;0.00;0.00;;;;;;;;6212731;22;45497;-93
2023/11/09 02:10:02;;;;;;;;;0.00;0.00;;;;;;;;6213839;22;46256;-94
2023/11/09 02:12:28;;;;;;;;;0.00;0.00;;;;;;;;6213994;22;45259;-92
2023/11/09 02:14:55;;;;;;;;;0.00;0.00;;;;;;;;6212550;22;45276;-93
2023/11/09 02:17:21;;;;;;;;;0.00;0.00;;;;;;;;6213889;22;45460;-92
2023/11/09 02:19:49;;;;;;;;;0.00;0.00;;;;;;;;6213108;22;45246;-93
2023/11/09 02:22:15;;;;;;;;;0.00;0.00;;;;;;;;6213519;22;45293;-93
2023/11/09 02:24:40;;;;;;;;;0.00;0.00;;;;;;;;6213905;22;45260;-92
2023/11/09 02:27:08;;;;;;;;;0.00;0.00;;;;;;;;6212801;22;45168;-93
2023/11/09 02:29:39;;;;;;;;;0.00;0.00;;;;;;;;6213695;22;45219;-92
2023/11/09 02:32:04;;;;;;;;;0.00;0.00;;;;;;;;6214698;22;45208;-93
2023/11/09 02:34:32;;;;;;;;;0.00;0.00;;;;;;;;6212783;22;45458;-92
2023/11/09 02:37:01;;;;;;;;;0.00;0.00;;;;;;;;6214068;22;45250;-93
2023/11/09 02:39:27;;;;;;;;;0.00;0.00;;;;;;;;6213529;22;45355;-93
2023/11/09 02:41:52;;;;;;;;;0.00;0.00;;;;;;;;6212586;22;45714;-93
2023/11/09 02:44:24;;;;;;;;;0.00;0.00;;;;;;;;6213923;22;45147;-93
2023/11/09 02:46:52;;;;;;;;;0.00;0.00;;;;;;;;6214004;22;45272;-93
2023/11/09 02:49:17;;;;;;;;;0.00;0.00;;;;;;;;6212251;22;46111;-93
2023/11/09 02:51:42;;;;;;;;;0.00;0.00;;;;;;;;6213441;22;45429;-92
2023/11/09 02:54:08;;;;;;;;;0.00;0.00;;;;;;;;6214199;22;45651;-93
2023/11/09 02:56:33;;;;;;;;;0.00;0.00;;;;;;;;6212138;22;45464;-93
2023/11/09 02:58:58;;;;;;;;;0.00;0.00;;;;;;;;6214006;22;46316;-93
2023/11/09 03:01:27;;;;;;;;;0.00;0.00;;;;;;;;6213703;22;45230;-92
2023/11/09 03:03:53;;;;;;;;;0.00;0.00;;;;;;;;6213480;22;45234;-93
2023/11/09 03:06:19;;;;;;;;;0.00;0.00;;;;;;;;6214158;22;45342;-93
2023/11/09 03:08:44;;;;;;;;;0.00;0.00;;;;;;;;6213234;22;45336;-92
2023/11/09 03:11:10;;;;;;;;;0.00;0.00;;;;;;;;6213893;22;45279;-93
2023/11/09 03:13:39;;;;;;;;;0.00;0.00;;;;;;;;6212491;22;45250;-92
2023/11/09 03:16:06;;;;;;;;;0.00;0.00;;;;;;;;6213627;22;45164;-91
2023/11/09 03:18:31;;;;;;;;;0.00;0.00;;;;;;;;6212854;22;45256;-92
2023/11/09 03:20:57;;;;;;;;;0.00;0.00;;;;;;;;6215684;22;45219;-91
2023/11/09 03:23:23;;;;;;;;;0.00;0.00;;;;;;;;6220974;22;45273;-93
2023/11/09 03:25:48;;;;;;;;;0.00;0.00;;;;;;;;6215504;22;45380;-92
2023/11/09 03:28:14;;;;;;;;;0.00;0.00;;;;;;;;6213835;22;46831;-92
2023/11/09 03:30:39;;;;;;;;;0.00;0.00;;;;;;;;6213366;22;45313;-93
2023/11/09 03:33:07;;;;;;;;;0.00;0.00;;;;;;;;6214283;22;45262;-93
2023/11/09 03:35:32;;;;;;;;;0.00;0.00;;;;;;;;6213664;22;45482;-92
2023/11/09 03:37:57;;;;;;;;;0.00;0.00;;;;;;;;6215013;22;46227;-93
2023/11/09 03:40:22;;;;;;;;;0.00;0.00;;;;;;;;6214382;22;45270;-93
2023/11/09 03:42:50;;;;;;;;;0.00;0.00;;;;;;;;6213302;22;45616;-92
2023/11/09 03:45:16;;;;;;;;;0.00;0.00;;;;;;;;6215086;22;45516;-93
2023/11/09 03:47:41;;;;;;;;;0.00;0.00;;;;;;;;6212419;22;47112;-92
2023/11/09 03:50:07;;;;;;;;;0.00;0.00;;;;;;;;6213292;22;45369;-93
2023/11/09 03:52:32;;;;;;;;;0.00;0.00;;;;;;;;6213721;22;45354;-92
2023/11/09 03:54:57;;;;;;;;;0.00;0.00;;;;;;;;6214815;22;45332;-93
2023/11/09 03:57:23;;;;;;;;;0.00;0.00;;;;;;;;6217811;22;47921;-93
2023/11/09 03:59:48;;;;;;;;;0.00;0.00;;;;;;;;6218348;22;45289;-93
2023/11/09 04:02:13;;;;;;;;;0.00;0.00;;;;;;;;6217897;22;45277;-93
2023/11/09 04:04:38;;;;;;;;;0.00;0.00;;;;;;;;6245257;22;45398;-93
2023/11/09 04:07:04;;;;;;;;;0.00;0.00;;;;;;;;6244973;22;45246;-93
2023/11/09 04:09:41;;;;;;;;;0.00;0.00;;;;;;;;6245419;22;45265;-92
2023/11/09 04:12:06;;;;;;;;;0.00;0.00;;;;;;;;6245586;22;45214;-93
2023/11/09 04:14:32;;;;;;;;;0.00;0.00;;;;;;;;6245235;22;45503;-92
2023/11/09 04:16:57;;;;;;;;;0.00;0.00;;;;;;;;6244668;22;45305;-92
2023/11/09 04:19:22;;;;;;;;;0.00;0.00;;;;;;;;6245259;22;45327;-92
2023/11/09 04:21:50;;;;;;;;;0.00;0.00;;;;;;;;6218542;22;45400;-93
2023/11/09 04:24:15;;;;;;;;;0.00;0.00;;;;;;;;6218336;22;45739;-93
2023/11/09 04:26:48;;;;;;;;;0.00;0.00;;;;;;;;6218539;22;46872;-93
2023/11/09 04:29:13;;;;;;;;;0.00;0.00;;;;;;;;6245122;22;45372;-93
2023/11/09 04:31:42;;;;;;;;;0.00;0.00;;;;;;;;6217936;22;45244;-93
2023/11/09 04:34:08;;;;;;;;;0.00;0.00;;;;;;;;6245380;22;45263;-92
2023/11/09 04:36:35;;;;;;;;;0.00;0.00;;;;;;;;6245064;22;45342;-93
2023/11/09 04:39:13;;;;;;;;;;;;;;;;;;;;;
2023/11/09 04:41:41;;;;;;;;;0.00;0.00;;;;;;;;6240884;22;68995;-92
2023/11/09 04:44:09;;;;;;;;;0.00;0.00;;;;;;;;6244646;22;45342;-92
2023/11/09 04:46:40;;;;;;;;;0.00;0.00;;;;;;;;6244867;22;46186;-92
2023/11/09 04:49:07;;;;;;;;;1.00;1.00;;;;;;;;6245277;22;45288;-92
2023/11/09 04:51:32;;;;;;;;;0.00;0.00;;;;;;;;6245369;22;45306;-92
2023/11/09 04:54:06;;;;;;;;;0.00;0.00;;;;;;;;6218567;22;45557;-95
2023/11/09 04:56:53;;;;;;;;;0.00;0.00;;;;;;;;6244453;22;46624;-92
2023/11/09 05:07:25;;;;;;;;;0.00;0.00;;;;;;;;6245189;22;45776;-93
2023/11/09 05:09:53;;;;;;;;;0.00;0.00;;;;;;;;6244733;22;45325;-93
2023/11/09 05:12:18;;;;;;;;;0.00;0.00;;;;;;;;6245175;22;45152;-94
2023/11/09 05:14:43;;;;;;;;;0.00;0.00;;;;;;;;6244925;22;45275;-92
2023/11/09 05:17:09;;;;;;;;;0.00;0.00;;;;;;;;6244903;22;46956;-91
2023/11/09 05:19:38;;;;;;;;;0.00;0.00;;;;;;;;6244620;22;45243;-92
2023/11/09 05:22:03;;;;;;;;;0.00;0.00;;;;;;;;6218424;22;45294;-92
2023/11/09 05:24:29;;;;;;;;;0.00;0.00;;;;;;;;6217851;22;45357;-93
2023/11/09 05:26:54;;;;;;;;;0.00;0.00;;;;;;;;6218000;22;46997;-92
2023/11/09 05:29:19;;;;;;;;;0.00;0.00;;;;;;;;6244426;22;45283;-92
2023/11/09 05:31:45;;;;;;;;;0.00;0.00;;;;;;;;6245020;22;45291;-92
2023/11/09 05:34:11;;;;;;;;;0.00;0.00;;;;;;;;6218226;22;45491;-93
2023/11/09 05:36:36;;;;;;;;;0.00;0.00;;;;;;;;6217745;22;46850;-93
2023/11/09 05:39:05;;;;;;;;;0.00;0.00;;;;;;;;6244630;22;45133;-92
2023/11/09 05:41:31;;;;;;;;;0.00;0.00;;;;;;;;6245026;22;45277;-93
2023/11/09 05:43:57;;;;;;;;;0.00;0.00;;;;;;;;6244318;22;45204;-92
2023/11/09 05:46:22;;;;;;;;;0.00;0.00;;;;;;;;6244614;22;46229;-95
2023/11/09 05:48:50;;;;;;;;;0.00;0.00;;;;;;;;6246575;22;45255;-93
2023/11/09 05:51:20;;;;;;;;;0.00;0.00;;;;;;;;6220068;22;44785;-93
2023/11/09 05:53:46;;;;;;;;;0.00;0.00;;;;;;;;6218237;22;45343;-92
2023/11/09 05:56:12;;;;;;;;;0.00;0.00;;;;;;;;6216454;22;46803;-94
2023/11/09 05:58:38;;;;;;;;;0.00;0.00;;;;;;;;6217624;22;45229;-94
2023/11/09 06:01:03;;;;;;;;;0.00;0.00;;;;;;;;6218307;22;45368;-94
2023/11/09 06:03:28;;;;;;;;;0.00;0.00;;;;;;;;6217894;22;45576;-95
2023/11/09 06:05:53;;;;;;;;;0.00;0.00;;;;;;;;6217518;22;48088;-93
2023/11/09 06:08:19;;;;;;;;;0.00;0.00;;;;;;;;6244828;22;45261;-94
2023/11/09 06:10:45;;;;;;;;;0.00;0.00;;;;;;;;6244867;22;45243;-94
2023/11/09 06:13:11;;;;;;;;;0.00;0.00;;;;;;;;6244191;22;45458;-93
2023/11/09 06:15:36;;;;;;;;;0.00;0.00;;;;;;;;6243510;22;47986;-93
2023/11/09 06:18:01;;;;;;;;;0.00;0.00;;;;;;;;6218582;22;45228;-89
2023/11/09 06:20:30;;;;;;;;;0.00;0.00;;;;;;;;6217252;22;45134;-89
2023/11/09 06:22:55;;;;;;;;;0.00;0.00;;;;;;;;6244333;22;45240;-87
2023/11/09 06:25:23;;;;;;;;;0.00;0.00;;;;;;;;6218542;22;47903;-93
2023/11/09 06:27:51;;;;;;;;;0.00;0.00;;;;;;;;6220836;22;45362;-96
2023/11/09 06:30:16;;;;;;;;;0.00;0.00;;;;;;;;6221298;22;45258;-91
2023/11/09 06:35:29;;;;;;;;;0.00;0.00;;;;;;;;6227776;22;46975;-87
2023/11/09 06:37:55;;;;;;;;;0.00;0.00;;;;;;;;6244746;22;45268;-89
2023/11/09 06:40:25;;;;;;;;;0.00;0.00;;;;;;;;6243625;22;45156;-89
2023/11/09 06:42:53;;;;;;;;;0.00;0.00;;;;;;;;6243834;22;45279;-90
2023/11/09 06:45:18;;;;;;;;;0.00;0.00;;;;;;;;6243448;22;45388;-89
2023/11/09 06:48:00;;;;;;;;;0.00;0.00;;;;;;;;6243506;22;45275;-91
2023/11/09 06:50:27;;;;;;;;;0.00;0.00;;;;;;;;6215038;22;45339;-85
2023/11/09 06:52:55;;;;;;;;;0.00;0.00;;;;;;;;6214995;22;45241;-84
2023/11/09 06:55:21;;;;;;;;;0.00;0.00;;;;;;;;6240944;22;46441;-84
2023/11/09 06:57:48;;;;;;;;;0.00;0.00;;;;;;;;6242465;22;45228;-84
2023/11/09 07:00:14;;;;;;;;;0.00;0.00;;;;;;;;6214880;22;45279;-84
2023/11/09 07:02:40;;;;;;;;;0.00;0.00;;;;;;;;6214437;22;45399;-83
2023/11/09 07:05:05;;;;;;;;;0.00;0.00;;;;;;;;6241488;22;47216;-84
2023/11/09 07:07:34;;;;;;;;;0.00;0.00;;;;;;;;6242765;22;45318;-83
2023/11/09 07:09:59;;;;;;;;;0.00;0.00;;;;;;;;6243120;22;45198;-84
2023/11/09 07:12:27;;;;;;;;;0.00;0.00;;;;;;;;6243960;22;45418;-82
2023/11/09 07:14:53;;;;;;;;;0.00;0.00;;;;;;;;6243360;22;46193;-81
2023/11/09 07:17:19;;;;;;;;;0.00;0.00;;;;;;;;6243199;22;45278;-82
2023/11/09 07:19:47;;;;;;;;;0.00;0.00;;;;;;;;6243474;22;45216;-81
2023/11/09 07:22:13;;;;;;;;;0.00;0.00;;;;;;;;6243105;22;45295;-80
2023/11/09 07:24:39;;;;;;;;;0.00;0.00;;;;;;;;6242374;22;47156;-81
2023/11/09 07:27:09;;;;;;;;;0.00;0.00;;;;;;;;6243590;22;45516;-81
2023/11/09 07:29:35;;;;;;;;;0.00;0.00;;;;;;;;6243617;22;45253;-81
2023/11/09 07:32:00;;;;;;;;;0.00;0.00;;;;;;;;6216391;22;45460;-81
2023/11/09 07:34:27;;;;;;;;;0.00;0.00;;;;;;;;6243295;22;47207;-81
2023/11/09 07:36:52;;;;;;;;;0.00;0.00;;;;;;;;6243399;22;45244;-81
2023/11/09 07:39:18;;;;;;;;;0.00;0.00;;;;;;;;6243398;22;45135;-81
2023/11/09 07:41:43;;;;;;;;;0.00;0.00;;;;;;;;6243645;22;45322;-80
2023/11/09 07:44:08;;;;;;;;;0.00;0.00;;;;;;;;6243464;22;45285;-80
2023/11/09 07:46:34;;;;;;;;;0.00;0.00;;;;;;;;6215293;22;45464;-82
2023/11/09 07:49:02;;;;;;;;;0.00;0.00;;;;;;;;6243363;22;45395;-84
2023/11/09 07:51:27;;;;;;;;;0.00;0.00;;;;;;;;6216529;22;45249;-85
2023/11/09 07:53:52;;;;;;;;;0.00;0.00;;;;;;;;6242679;22;46469;-85
2023/11/09 07:56:17;;;;;;;;;0.67;0.67;;;;;;;;6243055;22;45279;-86
2023/11/09 07:58:45;;;;;;;;;0.00;0.00;;;;;;;;6216883;22;45266;-87
2023/11/09 08:01:11;;;;;;;;;0.00;0.00;;;;;;;;6216767;22;45260;-87
2023/11/09 08:03:36;;;;;;;;;0.00;0.00;;;;;;;;6243214;22;46286;-87
2023/11/09 08:06:02;;;;;;;;;0.00;0.00;;;;;;;;6215746;22;45292;-87
2023/11/09 08:08:31;;;;;;;;;0.00;0.00;;;;;;;;6242347;22;45440;-86
2023/11/09 08:10:58;;;;;;;;;0.00;0.00;;;;;;;;6241876;22;45491;-88
2023/11/09 08:13:27;;;;;;;;;0.00;0.00;;;;;;;;6243080;22;46281;-87
2023/11/09 08:15:54;;;;;;;;;0.00;0.00;;;;;;;;6243081;22;45255;-85
2023/11/09 08:18:19;;;;;;;;;0.00;0.00;;;;;;;;6242533;22;45161;-87
2023/11/09 08:20:47;;;;;;;;;0.00;0.00;;;;;;;;6242996;22;45576;-87
2023/11/09 08:23:13;;;;;;;;;0.75;0.00;;;;;;;;6242436;22;46889;-87
2023/11/09 08:25:38;;;;;;;;;0.00;0.00;;;;;;;;6215823;22;45462;-87
2023/11/09 08:28:08;;;;;;;;;0.00;0.00;;;;;;;;6243403;22;45272;-87
2023/11/09 08:30:34;;;;;;;;;0.00;0.00;;;;;;;;6242920;22;45659;-87
2023/11/09 08:33:13;;;;;;;;;;;;;;;;;;;;;
2023/11/09 08:35:50;;;;;;;;;0.00;0.00;;;;;;;;6236680;22;74096;-86
2023/11/09 08:38:20;;;;;;;;;0.75;0.00;;;;;;;;6242205;22;45415;-86
2023/11/09 08:40:55;;;;;;;;;0.00;0.00;;;;;;;;6243101;22;45407;-88
2023/11/09 08:43:20;;;;;;;;;0.00;0.00;;;;;;;;6242647;22;45573;-87
2023/11/09 08:48:53;;;;;;;;;0.00;0.00;;;;;;;;6090541;23;45552;-85
2023/11/09 08:51:27;;;;;;;;;0.00;0.00;;;;;;;;6065321;23;45546;-87
2023/11/09 08:53:52;;;;;;;;;0.00;0.00;;;;;;;;6089485;23;45726;-85
2023/11/09 08:56:21;;;;;;;;;0.00;0.00;;;;;;;;6089275;23;45364;-84
2023/11/09 08:58:48;;;;;;;;;0.00;0.00;;;;;;;;6089785;23;45696;-84
2023/11/09 09:01:18;;;;;;;;;0.00;0.00;;;;;;;;6089193;23;45725;-84
2023/11/09 09:03:49;;;;;;;;;0.00;0.00;;;;;;;;6089149;23;47125;-85
2023/11/09 09:06:16;;;;;;;;;0.00;0.00;;;;;;;;6064548;23;45529;-84
2023/11/09 09:08:42;;;;;;;;;0.00;0.00;;;;;;;;6089795;23;45439;-87
2023/11/09 09:11:07;;;;;;;;;0.00;0.00;;;;;;;;6089737;23;45481;-84
2023/11/09 09:13:33;;;;;;;;;0.00;0.00;;;;;;;;6089060;23;47032;-84
2023/11/09 09:16:00;;;;;;;;;0.00;0.00;;;;;;;;6089485;23;45445;-87
2023/11/09 09:18:33;;;;;;;;;0.00;0.00;;;;;;;;6092061;23;45530;-89
2023/11/09 09:21:22;;;;;;;;;0.00;0.00;;;;;;;;6090426;23;45639;-89
2023/11/09 09:23:58;;;;;;;;;0.00;0.00;;;;;;;;6094629;22;46195;-88
2023/11/09 09:26:33;;;;;;;;;0.00;0.00;;;;;;;;6242830;22;45584;-88
2023/11/09 09:28:59;;;;;;;;;0.00;0.00;;;;;;;;6244593;22;45475;-87
2023/11/09 09:31:24;;;;;;;;;0.00;0.00;;;;;;;;6242771;22;45474;-87
2023/11/09 09:33:56;;;;;;;;;0.00;0.00;;;;;;;;6242745;22;46081;-83
2023/11/09 09:36:22;;;;;;;;;0.00;0.00;;;;;;;;6241859;22;45312;-82
2023/11/09 09:38:47;;;;;;;;;0.00;0.00;;;;;;;;6242929;22;45140;-84
2023/11/09 09:41:15;;;;;;;;;0.00;0.00;;;;;;;;6242539;22;45214;-83
2023/11/09 09:43:42;;;;;;;;;0.00;0.00;;;;;;;;6215383;22;46229;-86
2023/11/09 09:46:12;;;;;;;;;0.00;0.00;;;;;;;;6237223;22;45425;-86
2023/11/09 09:48:38;;;;;;;;;0.00;0.00;;;;;;;;6243067;22;45263;-86
2023/11/09 09:51:06;;;;;;;;;0.00;0.00;;;;;;;;6242582;22;45481;-87
2023/11/09 09:53:32;;;;;;;;;0.00;0.00;;;;;;;;6216470;22;47281;-84
2023/11/09 09:55:57;;;;;;;;;0.00;0.00;;;;;;;;6244109;22;45424;-85
2023/11/09 09:58:22;;;;;;;;;0.00;0.00;;;;;;;;6211011;22;45630;-85
2023/11/09 10:00:52;;;;;;;;;0.00;0.00;;;;;;;;6212033;22;45359;-86
2023/11/09 10:03:18;;;;;;;;;0.00;0.00;;;;;;;;6210761;22;46245;-85
2023/11/09 10:05:44;;;;;;;;;0.00;0.00;;;;;;;;6211807;22;45497;-86
2023/11/09 10:08:13;;;;;;;;;0.00;0.00;;;;;;;;6212213;22;45682;-86
2023/11/09 10:10:44;;;;;;;;;0.00;0.00;;;;;;;;6212411;22;45394;-86
2023/11/09 10:13:15;;;;;;;;;0.00;0.00;;;;;;;;6211892;22;46430;-86
2023/11/09 10:15:41;;;;;;;;;0.00;0.00;;;;;;;;6211722;22;45349;-87
2023/11/09 10:18:06;;;;;;;;;0.00;0.00;;;;;;;;6211176;22;45281;-86
2023/11/09 10:20:34;;;;;;;;;0.00;0.00;;;;;;;;6212264;22;45319;-86
2023/11/09 10:23:02;;;;;;;;;0.00;0.00;;;;;;;;6211594;22;46385;-86
2023/11/09 10:25:29;;;;;;;;;0.00;0.00;;;;;;;;6209894;22;45308;-86
2023/11/09 10:28:07;;;;;;;;;0.00;0.00;;;;;;;;6211330;22;45214;-88
2023/11/09 10:30:56;;;;;;;;;0.00;0.00;;;;;;;;6209969;22;45342;-86
2023/11/09 10:33:21;;;;;;;;;0.00;0.00;;;;;;;;6195381;22;45508;-86
2023/11/09 10:35:47;;;;;;;;;0.00;0.00;;;;;;;;6211780;22;45513;-85
2023/11/09 10:38:13;;;;;;;;;0.00;0.00;;;;;;;;6212169;22;45381;-86
2023/11/09 10:40:42;;;;;;;;;0.00;0.00;;;;;;;;6211665;22;45429;-86
2023/11/09 10:43:14;;;;;;;;;0.00;0.00;;;;;;;;6212176;22;45397;-87
2023/11/09 10:45:40;;;;;;;;;0.00;0.00;;;;;;;;6212954;22;45372;-87
2023/11/09 10:48:07;;;;;;;;;0.00;0.00;;;;;;;;6212760;22;45289;-86
2023/11/09 10:50:35;;;;;;;;;0.00;0.00;;;;;;;;6211987;22;45497;-87
2023/11/09 10:53:21;;;;;;;;;0.00;0.00;;;;;;;;6212861;22;45650;-88
2023/11/09 10:58:44;;;;;;;;;0.00;0.00;;;;;;;;6192678;22;45315;-87
2023/11/09 11:01:14;;;;;;;;;0.00;0.00;;;;;;;;6213075;22;45418;-87
2023/11/09 11:03:51;;;;;;;;;0.00;0.00;;;;;;;;6211913;22;45563;-86
2023/11/09 11:06:23;;;;;;;;;0.00;0.00;;;;;;;;6211824;22;45231;-87
2023/11/09 11:08:53;;;;;;;;;0.00;0.00;;;;;;;;6211920;22;45240;-85
2023/11/09 11:11:28;;;;;;;;;0.50;0.00;;;;;;;;6212865;22;45328;-92
2023/11/09 11:14:00;;;;;;;;;0.00;0.00;;;;;;;;6212594;22;47076;-87
2023/11/09 11:16:26;;;;;;;;;0.00;0.00;;;;;;;;6212466;22;45231;-87
2023/11/09 11:18:58;;;;;;;;;0.00;0.00;;;;;;;;6213053;22;45200;-88
2023/11/09 11:21:46;;;;;;;;;0.00;0.00;;;;;;;;6214318;22;45322;-92
2023/11/09 11:24:31;;;;;;;;;0.00;0.00;;;;;;;;6186516;22;47114;-88
2023/11/09 11:27:24;;;;;;;;;;;;;;;;;;;;;
2023/11/09 11:29:50;;;;;;;;;0.00;0.00;;;;;;;;6204298;22;69213;-87
2023/11/09 11:32:21;;;;;;;;;0.00;0.00;;;;;;;;6211961;22;45255;-87
2023/11/09 11:35:07;;;;;;;;;0.00;0.00;;;;;;;;6212556;22;45567;-88
2023/11/09 11:37:38;;;;;;;;;0.25;0.00;;;;;;;;6212343;22;45292;-88
2023/11/09 11:43:11;;;;;;;;;0.00;0.00;;;;;;;;6212841;22;45339;-86
2023/11/09 11:45:36;;;;;;;;;0.00;0.00;;;;;;;;6211793;22;47764;-86
2023/11/09 11:48:10;;;;;;;;;0.00;0.00;;;;;;;;6212805;22;45265;-87
2023/11/09 11:50:38;;;;;;;;;0.00;0.00;;;;;;;;6209475;22;45404;-86
2023/11/09 11:53:12;;;;;;;;;0.00;0.00;;;;;;;;6212577;22;45453;-85
2023/11/09 11:55:37;;;;;;;;;0.00;0.00;;;;;;;;6212652;22;46913;-90
2023/11/09 11:58:13;;;;;;;;;0.00;0.00;;;;;;;;6211394;22;45380;-88
2023/11/09 12:00:44;;;;;;;;;0.00;0.00;;;;;;;;6215251;22;45412;-89
2023/11/09 12:03:12;;;;;;;;;0.00;0.00;;;;;;;;6215914;22;45310;-85
2023/11/09 12:05:58;;;;;;;;;0.00;0.00;;;;;;;;6215650;22;47228;-88
2023/11/09 12:08:23;;;;;;;;;0.75;0.25;;;;;;;;6241774;22;45302;-87
2023/11/09 12:10:53;;;;;;;;;0.00;0.00;;;;;;;;6216437;22;45254;-86
2023/11/09 12:13:21;;;;;;;;;0.00;0.00;;;;;;;;6243132;22;45463;-86
2023/11/09 12:15:55;;;;;;;;;0.00;0.00;;;;;;;;6242196;22;45482;-89
2023/11/09 12:18:26;;;;;;;;;0.00;0.00;;;;;;;;6243119;22;45329;-88
2023/11/09 12:20:54;;;;;;;;;0.00;0.00;;;;;;;;6243380;22;45274;-87
2023/11/09 12:23:23;;;;;;;;;0.00;0.00;;;;;;;;6243196;22;45319;-87
2023/11/09 12:25:52;;;;;;;;;0.00;0.00;;;;;;;;6242789;22;46195;-86
2023/11/09 12:28:18;;;;;;;;;0.00;0.00;;;;;;;;6242526;22;45328;-87
2023/11/09 12:31:15;;;;;;;;;0.00;0.00;;;;;;;;6245353;22;45273;-92
2023/11/09 12:33:59;;;;;;;;;1.00;0.00;;;;;;;;6048271;23;45606;-89
2023/11/09 12:36:25;;;;;;;;;0.00;0.00;;;;;;;;1904789;23;89433567;-87
2023/11/09 12:38:51;;;;;;;;;0.00;0.00;;;;;;;;6129154;23;42926;-86
2023/11/09 12:41:21;;;;;;;;;1.00;1.00;;;;;;;;6108440;23;8727;-88
2023/11/09 12:44:02;;;;;;;;;;;;;;;;;;;;;
2023/11/09 12:46:37;;;;;;;;;0.00;0.00;;;;;;;;6134262;23;36984;-89
2023/11/09 12:52:38;;;;;;;;;;;;;;;;;;;;;
2023/11/09 12:55:09;;;;;;;;;0.00;0.00;;;;;;;;5989950;23;36065;-90
2023/11/09 12:57:39;;;;;;;;;0.00;0.00;;;;;;;;5966271;23;8765;-91
2023/11/09 13:00:19;;;;;;;;;0.00;0.00;;;;;;;;5989981;23;8861;-87
2023/11/09 13:05:49;;;;;;;;;;;;;;;;;;;;;
2023/11/09 13:09:03;;;;;;;;;0.00;0.00;;;;;;;;5988642;23;37248;-89
2023/11/09 13:11:53;;;;;;;;;;;;;;;;;;;;;
2023/11/09 13:14:36;;;;;;;;;0.00;0.00;;;;;;;;6099579;23;35732;-90
2023/11/09 13:20:20;;;;;;;;;;;;;;;;;;;;;
2023/11/09 13:28:43;;;;;;;;;0.00;0.00;;;;;;;;6070162;23;8775;-91
2023/11/09 13:31:19;;;;;;;;;0.00;0.00;;;;;;;;6092139;23;8752;-92
2023/11/09 13:34:01;;;;;;;;;0.00;0.00;;;;;;;;6076395;23;8752;-92
2023/11/09 13:36:57;;;;;;;;;0.00;0.00;;;;;;;;6076315;23;8761;-92
2023/11/09 13:42:15;;;;;;;;;;;;;;;;;;;;;
2023/11/09 13:44:47;;;;;;;;;0.00;0.00;;;;;;;;6075867;23;36783;-89
2023/11/09 13:47:20;;;;;;;;;0.00;0.00;;;;;;;;6077024;23;8750;-94
2023/11/09 13:50:04;;;;;;;;;;;;;;;;;;;;;
2023/11/09 13:53:01;;;;;;;;;;;;;;;;;;;;;
2023/11/09 13:58:24;;;;;;;;;0.00;0.00;;;;;;;;6073265;23;8853;-90
2023/11/09 14:01:00;;;;;;;;;;;;;;;;;;;;;
2023/11/09 14:03:40;;;;;;;;;0.00;0.00;;;;;;;;6055002;23;36155;-90
2023/11/09 14:06:13;;;;;;;;;0.00;0.00;;;;;;;;6096173;23;8837;-90
2023/11/09 14:08:58;;;;;;;;;0.00;0.00;;;;;;;;6139111;23;8765;-89
2023/11/09 14:11:57;;;;;;;;;0.00;0.00;;;;;;;;6163752;23;8793;-90
2023/11/09 14:14:35;;;;;;;;;0.00;0.00;;;;;;;;6163376;23;9520;-87
2023/11/09 14:17:14;;;;;;;;;0.00;0.00;;;;;;;;6136666;23;8821;-87
2023/11/09 14:22:28;;;;;;;;;0.00;0.00;;;;;;;;6142522;23;8845;-89
2023/11/09 15:14:35;;;;;;;;;0.00;0.00;;;;;11.06;100.00;100013.19;5152124;27;45668;-82
2023/11/09 15:17:01;;;;;;;;;0.00;0.00;;;;;10.99;100.00;100012.59;5113387;27;45578;-81
2023/11/09 15:19:26;;;;;;;;;0.00;0.00;;;;;11.03;100.00;100015.03;5115309;27;45380;-82
2023/11/09 15:21:51;;;;;;;;;0.00;0.00;;;;;11.08;100.00;100008.75;5132450;27;45627;-81
2023/11/09 15:24:17;;;;;;;;;0.00;0.00;;;;;11.24;100.00;99976.78;5132549;27;45439;-82
2023/11/09 15:26:43;;;;;;;;;0.00;0.00;;;;;11.37;100.00;99992.72;5126034;27;45871;-82
2023/11/09 15:29:09;;;;;;;;;0.00;0.00;;;;;11.45;100.00;99996.75;5112064;27;45418;-81
2023/11/09 15:31:35;;;;;;;;;0.00;0.00;;;;;11.45;100.00;99981.94;5112309;27;45660;-82
2023/11/09 15:34:03;;;;;;;;;0.00;0.00;;;;;11.43;100.00;99986.38;5112128;27;45370;-81
2023/11/09 15:36:28;;;;;;;;;0.00;0.00;;;;;11.36;100.00;99993.63;5122262;27;45434;-80
2023/11/09 15:38:54;;;;;;;;;0.00;0.00;;;;;11.29;100.00;99989.63;5132392;27;45387;-80
2023/11/09 15:41:20;;;;;;;;;0.00;0.00;;;;;11.18;100.00;99987.47;5127146;27;45563;-79
2023/11/09 15:43:48;;;;;;;;;0.00;0.00;;;;;11.16;100.00;99983.22;5126593;27;47092;-79
2023/11/09 15:46:15;;;;;;;;;0.00;0.00;;;;;11.12;100.00;99981.66;5133613;27;45397;-79
2023/11/09 15:48:41;;;;;;;;;0.00;0.00;;;;;11.15;100.00;99976.34;5132295;27;45367;-80
2023/11/09 15:51:07;;;;;;;;;0.00;0.00;;;;;11.15;100.00;99971.13;5132199;27;45391;-81
2023/11/09 15:53:35;;;;;;;;;0.00;0.00;;;;;11.08;100.00;99980.13;5132566;27;75399;-80
2023/11/09 15:56:01;;;;;;;;;0.00;0.00;;;;;11.07;100.00;99989.69;5133152;27;45917;-81
2023/11/09 15:58:26;;;;;;;;;0.00;0.00;;;;;11.03;100.00;99986.38;5139978;27;45343;-82
2023/11/09 16:00:51;;;;;;;;;0.00;0.00;;;;;11.06;100.00;99979.34;5115447;27;69639;-82
2023/11/09 16:03:19;;;;;;;;;0.00;0.00;;;;;11.04;100.00;99987.22;5120463;27;60104;-82
2023/11/09 16:05:46;;;;;;;;;0.00;0.00;;;;;11.03;100.00;99985.50;5132636;27;45414;-81
2023/11/09 16:08:11;;;;;;;;;0.00;0.00;;;;;11.04;100.00;99985.44;5125578;27;45398;-81
2023/11/09 16:10:38;;;;;;;;;0.00;0.00;;;;;11.10;100.00;99989.53;5124297;27;45456;-81
2023/11/09 16:13:04;;;;;;;;;0.00;0.00;;;;;11.11;100.00;99982.59;5109730;27;47483;-81
2023/11/09 16:15:30;;;;;;;;;0.00;0.00;;;;;11.16;100.00;99985.81;5096599;27;45366;-80
2023/11/09 16:17:55;;;;;;;;;0.00;0.00;;;;;11.14;100.00;99992.88;5098090;27;45345;-81